createdAt,value
2019-03-21T00:02:05.139Z,8.60
2019-03-21T00:08:13.570Z,8.40
2019-03-21T00:14:23.291Z,8.30
2019-03-21T00:20:28.302Z,8.10
2019-03-21T00:26:32.895Z,7.90
2019-03-21T00:32:37.480Z,7.70
2019-03-21T00:38:42.365Z,7.60
2019-03-21T00:44:46.917Z,7.40
2019-03-21T00:50:51.479Z,7.40
2019-03-21T00:56:56.100Z,7.30
2019-03-21T01:03:03.482Z,7.20
2019-03-21T01:09:16.774Z,7.10
2019-03-21T01:15:21.321Z,7.10
2019-03-21T01:21:25.878Z,7.10
2019-03-21T01:27:30.599Z,7.20
2019-03-21T01:33:35.141Z,7.30
2019-03-21T01:39:39.707Z,7.40
2019-03-21T01:45:44.256Z,7.50
2019-03-21T01:51:48.876Z,7.60
2019-03-21T01:57:53.443Z,7.60
2019-03-21T02:03:57.985Z,7.60
2019-03-21T02:10:02.617Z,7.60
2019-03-21T02:16:07.160Z,7.40
2019-03-21T02:22:11.714Z,7.30
2019-03-21T02:28:16.262Z,7.00
2019-03-21T02:34:20.810Z,6.80
2019-03-21T02:40:26.802Z,6.60
2019-03-21T02:46:31.446Z,6.20
2019-03-21T02:52:36.001Z,6.10
2019-03-21T02:58:40.586Z,6.00
2019-03-21T03:04:45.197Z,5.90
2019-03-21T03:10:56.850Z,5.90
2019-03-21T03:17:01.394Z,5.80
2019-03-21T03:23:06.037Z,5.60
2019-03-21T03:29:10.584Z,5.50
2019-03-21T03:35:15.502Z,5.40
2019-03-21T03:41:22.166Z,5.40
2019-03-21T03:47:26.714Z,5.20
2019-03-21T03:53:31.275Z,5.10
2019-03-21T03:59:35.905Z,5.00
2019-03-21T04:05:40.457Z,5.00
2019-03-21T04:11:45.089Z,4.80
2019-03-21T04:17:49.670Z,4.80
2019-03-21T04:23:54.226Z,4.80
2019-03-21T04:29:58.767Z,4.70
2019-03-21T04:36:03.325Z,4.70
2019-03-21T04:42:07.885Z,4.60
2019-03-21T04:48:12.504Z,4.70
2019-03-21T04:54:17.067Z,4.70
2019-03-21T05:00:35.056Z,4.70
2019-03-21T05:06:39.615Z,4.70
2019-03-21T05:12:44.236Z,4.60
2019-03-21T05:19:00.225Z,4.50
2019-03-21T05:25:08.297Z,4.50
2019-03-21T05:31:26.935Z,4.50
2019-03-21T05:37:31.502Z,4.60
2019-03-21T05:43:43.316Z,4.60
2019-03-21T05:49:47.966Z,4.60
2019-03-21T05:55:52.595Z,4.60
2019-03-21T06:01:57.156Z,4.60
2019-03-21T06:08:09.635Z,4.60
2019-03-21T06:14:14.420Z,4.70
2019-03-21T06:20:32.468Z,4.70
2019-03-21T06:27:25.585Z,4.90
2019-03-21T06:33:30.154Z,4.90
2019-03-21T06:39:34.686Z,5.10
2019-03-21T06:45:47.593Z,5.40
2019-03-21T06:51:45.538Z,5.60
2019-03-21T06:57:50.095Z,5.80
2019-03-21T07:03:54.665Z,6.00
2019-03-21T07:10:00.929Z,6.20
2019-03-21T07:16:05.616Z,7.00
2019-03-21T07:22:12.305Z,10.30
2019-03-21T07:28:16.541Z,13.30
2019-03-21T07:34:21.101Z,15.50
2019-03-21T07:40:25.671Z,16.60
2019-03-21T07:46:32.094Z,15.80
2019-03-21T07:52:36.581Z,14.10
2019-03-21T07:58:41.133Z,12.70
2019-03-21T08:04:45.703Z,12.00
2019-03-21T08:10:50.303Z,11.50
2019-03-21T08:16:54.866Z,11.40
2019-03-21T08:22:59.432Z,11.60
2019-03-21T08:29:04.060Z,12.10
2019-03-21T08:35:09.270Z,13.00
2019-03-21T08:41:13.971Z,14.10
2019-03-21T08:47:18.536Z,15.30
2019-03-21T08:53:23.133Z,16.40
2019-03-21T08:59:27.717Z,17.40
2019-03-21T09:05:32.454Z,18.80
2019-03-21T09:11:37.088Z,21.10
2019-03-21T09:17:41.720Z,22.80
2019-03-21T09:23:46.268Z,24.60
2019-03-21T09:29:53.733Z,25.70
2019-03-21T09:35:57.206Z,26.90
2019-03-21T09:42:01.792Z,27.70
2019-03-21T09:48:06.376Z,26.50
2019-03-21T09:54:10.944Z,25.40
2019-03-21T10:00:20.198Z,24.10
2019-03-21T10:06:24.847Z,23.40
2019-03-21T10:12:29.427Z,22.50
2019-03-21T10:18:33.992Z,21.90
2019-03-21T10:24:38.562Z,22.70
2019-03-21T10:30:43.699Z,22.90
2019-03-21T10:36:49.902Z,21.80
2019-03-21T10:42:54.483Z,22.00
2019-03-21T10:48:59.056Z,22.20
2019-03-21T10:55:04.682Z,22.50
2019-03-21T11:01:09.255Z,22.00
2019-03-21T11:07:12.286Z,22.50
2019-03-21T11:13:16.848Z,23.30
2019-03-21T11:19:21.486Z,23.30
2019-03-21T11:25:26.118Z,23.30
2019-03-21T11:31:30.680Z,23.80
2019-03-21T11:37:35.248Z,23.00
2019-03-21T11:43:39.812Z,22.90
2019-03-21T11:49:44.385Z,24.40
2019-03-21T11:55:49.004Z,23.10
2019-03-21T12:01:53.648Z,23.60
2019-03-21T12:07:58.217Z,24.40
2019-03-21T12:14:02.778Z,24.50
2019-03-21T12:20:29.217Z,24.60
2019-03-21T12:26:33.779Z,24.90
2019-03-21T12:32:38.354Z,26.40
2019-03-21T12:38:42.919Z,27.60
2019-03-21T12:44:49.469Z,27.50
2019-03-21T12:50:53.853Z,26.90
2019-03-21T12:56:58.416Z,27.40
2019-03-21T13:03:03.198Z,26.90
2019-03-21T13:09:09.023Z,27.80
2019-03-21T13:15:13.721Z,27.60
2019-03-21T13:21:18.414Z,26.80
2019-03-21T13:27:22.972Z,25.70
2019-03-21T13:33:27.531Z,25.60
2019-03-21T13:39:32.096Z,26.20
2019-03-21T13:45:36.747Z,26.80
2019-03-21T13:51:41.309Z,27.80
2019-03-21T13:57:45.864Z,28.80
2019-03-21T14:03:51.408Z,28.10
2019-03-21T14:09:55.975Z,28.80
2019-03-21T14:16:00.590Z,27.40
2019-03-21T14:22:05.150Z,28.00
2019-03-21T14:28:09.711Z,28.50
2019-03-21T14:34:14.277Z,29.40
2019-03-21T14:40:19.008Z,29.20
2019-03-21T14:46:23.574Z,29.90
2019-03-21T14:52:28.137Z,28.90
2019-03-21T14:58:32.699Z,29.60
2019-03-21T15:04:37.259Z,29.70
2019-03-21T15:10:41.817Z,30.20
2019-03-21T15:16:46.387Z,30.30
2019-03-21T15:22:50.955Z,30.50
2019-03-21T15:28:55.594Z,30.30
2019-03-21T15:35:00.245Z,30.70
2019-03-21T15:41:05.178Z,31.40
2019-03-21T15:47:09.877Z,31.70
2019-03-21T15:53:14.573Z,31.20
2019-03-21T15:59:19.141Z,31.30
2019-03-21T16:05:23.743Z,31.00
2019-03-21T16:11:28.278Z,30.80
2019-03-21T16:17:32.976Z,30.20
2019-03-21T16:23:37.533Z,30.20
2019-03-21T16:29:42.092Z,29.90
2019-03-21T16:35:46.655Z,29.50
2019-03-21T16:41:51.221Z,28.60
2019-03-21T16:47:55.786Z,26.70
2019-03-21T16:54:00.367Z,24.50
2019-03-21T17:00:08.884Z,23.00
2019-03-21T17:06:13.453Z,22.50
2019-03-21T17:12:18.049Z,21.50
2019-03-21T17:18:22.622Z,20.40
2019-03-21T17:24:29.587Z,19.00
2019-03-21T17:30:33.453Z,17.40
2019-03-21T17:36:38.024Z,16.00
2019-03-21T17:42:42.721Z,15.20
2019-03-21T17:48:47.385Z,14.50
2019-03-21T17:54:51.952Z,14.10
2019-03-21T18:00:56.512Z,13.70
2019-03-21T18:07:01.079Z,13.40
2019-03-21T18:13:06.568Z,13.20
2019-03-21T18:19:11.131Z,12.80
2019-03-21T18:25:15.759Z,12.60
2019-03-21T18:31:20.307Z,12.40
2019-03-21T18:37:24.887Z,12.30
2019-03-21T18:43:29.476Z,11.80
2019-03-21T18:49:34.034Z,11.70
2019-03-21T18:55:38.598Z,11.60
2019-03-21T19:01:43.201Z,11.60
2019-03-21T19:07:48.033Z,11.80
2019-03-21T19:13:52.602Z,11.90
2019-03-21T19:19:57.175Z,11.80
2019-03-21T19:26:01.843Z,11.70
2019-03-21T19:32:06.419Z,11.60
2019-03-21T19:38:11.317Z,11.40
2019-03-21T19:44:15.882Z,11.40
2019-03-21T19:50:22.643Z,11.60
2019-03-21T19:56:27.206Z,11.50
2019-03-21T20:02:31.827Z,11.40
2019-03-21T20:08:36.391Z,11.30
2019-03-21T20:14:40.970Z,11.20
2019-03-21T20:20:45.529Z,10.90
2019-03-21T20:26:50.167Z,10.60
2019-03-21T20:32:54.726Z,10.40
2019-03-21T20:38:59.292Z,10.10
2019-03-21T20:45:04.195Z,10.00
2019-03-21T20:51:08.843Z,10.00
2019-03-21T20:57:13.404Z,10.00
2019-03-21T21:03:18.938Z,10.00
2019-03-21T21:09:25.011Z,9.90
2019-03-21T21:15:29.636Z,9.80
2019-03-21T21:21:34.239Z,9.80
2019-03-21T21:27:48.735Z,9.70
2019-03-21T21:33:45.200Z,9.70
2019-03-21T21:39:49.875Z,9.50
2019-03-21T21:45:54.484Z,9.40
2019-03-21T21:51:59.048Z,9.30
2019-03-21T21:58:03.606Z,9.10
2019-03-21T22:04:08.229Z,8.90
2019-03-21T22:10:13.518Z,8.90
2019-03-21T22:16:18.095Z,8.90
2019-03-21T22:22:22.649Z,9.00
2019-03-21T22:28:27.206Z,9.00
2019-03-21T22:34:31.827Z,8.90
2019-03-21T22:40:36.474Z,8.80
2019-03-21T22:46:41.018Z,8.80
2019-03-21T22:52:46.372Z,8.70
2019-03-21T22:58:50.944Z,8.50
2019-03-21T23:04:55.484Z,8.40
2019-03-21T23:11:00.047Z,8.30
2019-03-21T23:17:04.605Z,8.10
2019-03-21T23:23:09.164Z,8.00
2019-03-21T23:29:13.720Z,8.00
2019-03-21T23:35:18.410Z,8.00
2019-03-21T23:41:23.003Z,7.90
2019-03-21T23:47:27.567Z,7.80
2019-03-21T23:53:32.195Z,7.80
2019-03-21T23:59:36.751Z,7.70
